sensor_id;sensor_type;location;lat;lon;timestamp;P1;durP1;ratioP1;P2;durP2;ratioP2
45206;SDS011;30950;53.086;21.576;2022-10-17T00:00:57;32.10;;;24.33;;
45206;SDS011;30950;53.086;21.576;2022-10-17T00:03:32;30.83;;;25.77;;
45206;SDS011;30950;53.086;21.576;2022-10-17T00:06:03;32.65;;;26.02;;
45206;SDS011;30950;53.086;21.576;2022-10-17T00:08:35;33.42;;;25.95;;
45206;SDS011;30950;53.086;21.576;2022-10-17T00:11:05;28.45;;;23.95;;
45206;SDS011;30950;53.086;21.576;2022-10-17T00:13:34;37.72;;;26.52;;
45206;SDS011;30950;53.086;21.576;2022-10-17T00:16:02;32.20;;;24.70;;
45206;SDS011;30950;53.086;21.576;2022-10-17T00:18:30;37.50;;;23.38;;
45206;SDS011;30950;53.086;21.576;2022-10-17T00:20:58;34.08;;;24.63;;
45206;SDS011;30950;53.086;21.576;2022-10-17T00:23:25;34.47;;;25.38;;
45206;SDS011;30950;53.086;21.576;2022-10-17T00:25:57;36.25;;;22.77;;
45206;SDS011;30950;53.086;21.576;2022-10-17T00:28:28;33.97;;;24.60;;
45206;SDS011;30950;53.086;21.576;2022-10-17T00:30:57;29.27;;;21.00;;
45206;SDS011;30950;53.086;21.576;2022-10-17T00:33:25;34.13;;;24.75;;
45206;SDS011;30950;53.086;21.576;2022-10-17T00:38:45;34.40;;;25.67;;
45206;SDS011;30950;53.086;21.576;2022-10-17T00:41:14;29.63;;;22.45;;
45206;SDS011;30950;53.086;21.576;2022-10-17T00:46:23;31.50;;;24.98;;
45206;SDS011;30950;53.086;21.576;2022-10-17T00:48:53;31.30;;;24.85;;
45206;SDS011;30950;53.086;21.576;2022-10-17T00:51:24;31.23;;;23.65;;
45206;SDS011;30950;53.086;21.576;2022-10-17T00:53:59;30.85;;;24.70;;
45206;SDS011;30950;53.086;21.576;2022-10-17T00:56:28;33.70;;;26.05;;
45206;SDS011;30950;53.086;21.576;2022-10-17T00:58:57;32.33;;;24.55;;
45206;SDS011;30950;53.086;21.576;2022-10-17T01:01:25;33.45;;;25.90;;
45206;SDS011;30950;53.086;21.576;2022-10-17T01:03:52;29.98;;;24.13;;
45206;SDS011;30950;53.086;21.576;2022-10-17T01:06:20;33.70;;;26.20;;
45206;SDS011;30950;53.086;21.576;2022-10-17T01:08:47;34.33;;;26.95;;
45206;SDS011;30950;53.086;21.576;2022-10-17T01:14:05;28.17;;;20.83;;
45206;SDS011;30950;53.086;21.576;2022-10-17T01:21:52;31.02;;;25.45;;
45206;SDS011;30950;53.086;21.576;2022-10-17T01:27:26;27.98;;;22.63;;
45206;SDS011;30950;53.086;21.576;2022-10-17T01:32:38;29.85;;;24.63;;
45206;SDS011;30950;53.086;21.576;2022-10-17T01:38:27;32.88;;;25.98;;
45206;SDS011;30950;53.086;21.576;2022-10-17T01:41:12;30.05;;;25.08;;
45206;SDS011;30950;53.086;21.576;2022-10-17T01:46:35;28.08;;;24.05;;
45206;SDS011;30950;53.086;21.576;2022-10-17T01:49:05;32.88;;;25.88;;
45206;SDS011;30950;53.086;21.576;2022-10-17T01:51:36;31.90;;;24.05;;
45206;SDS011;30950;53.086;21.576;2022-10-17T01:54:12;31.65;;;25.42;;
45206;SDS011;30950;53.086;21.576;2022-10-17T01:56:57;34.05;;;26.67;;
45206;SDS011;30950;53.086;21.576;2022-10-17T01:59:29;28.33;;;22.58;;
45206;SDS011;30950;53.086;21.576;2022-10-17T02:02:07;29.42;;;24.70;;
45206;SDS011;30950;53.086;21.576;2022-10-17T02:04:36;29.08;;;24.00;;
45206;SDS011;30950;53.086;21.576;2022-10-17T02:07:07;30.08;;;25.15;;
45206;SDS011;30950;53.086;21.576;2022-10-17T02:09:36;35.90;;;26.23;;
45206;SDS011;30950;53.086;21.576;2022-10-17T02:14:57;33.92;;;25.08;;
45206;SDS011;30950;53.086;21.576;2022-10-17T02:17:42;33.90;;;25.58;;
45206;SDS011;30950;53.086;21.576;2022-10-17T02:25:35;34.65;;;26.88;;
45206;SDS011;30950;53.086;21.576;2022-10-17T02:28:40;30.60;;;23.40;;
45206;SDS011;30950;53.086;21.576;2022-10-17T02:31:32;27.92;;;23.60;;
45206;SDS011;30950;53.086;21.576;2022-10-17T02:34:26;29.92;;;23.42;;
45206;SDS011;30950;53.086;21.576;2022-10-17T02:37:04;32.33;;;23.88;;
45206;SDS011;30950;53.086;21.576;2022-10-17T02:39:34;34.58;;;25.60;;
45206;SDS011;30950;53.086;21.576;2022-10-17T02:42:04;29.98;;;22.58;;
45206;SDS011;30950;53.086;21.576;2022-10-17T02:44:39;30.92;;;24.60;;
45206;SDS011;30950;53.086;21.576;2022-10-17T02:49:46;29.60;;;23.52;;
45206;SDS011;30950;53.086;21.576;2022-10-17T02:53:05;33.22;;;23.33;;
45206;SDS011;30950;53.086;21.576;2022-10-17T02:55:12;30.50;;;23.83;;
45206;SDS011;30950;53.086;21.576;2022-10-17T02:57:56;32.38;;;23.05;;
45206;SDS011;30950;53.086;21.576;2022-10-17T03:00:28;33.47;;;24.15;;
45206;SDS011;30950;53.086;21.576;2022-10-17T03:02:57;30.70;;;23.45;;
45206;SDS011;30950;53.086;21.576;2022-10-17T03:05:25;34.83;;;23.67;;
45206;SDS011;30950;53.086;21.576;2022-10-17T03:07:54;29.95;;;23.70;;
45206;SDS011;30950;53.086;21.576;2022-10-17T03:10:23;32.30;;;26.10;;
45206;SDS011;30950;53.086;21.576;2022-10-17T03:12:51;32.45;;;23.92;;
45206;SDS011;30950;53.086;21.576;2022-10-17T03:15:19;28.67;;;23.08;;
45206;SDS011;30950;53.086;21.576;2022-10-17T03:17:46;28.25;;;21.90;;
45206;SDS011;30950;53.086;21.576;2022-10-17T03:20:15;30.05;;;23.02;;
45206;SDS011;30950;53.086;21.576;2022-10-17T03:22:45;31.10;;;24.35;;
45206;SDS011;30950;53.086;21.576;2022-10-17T03:25:12;32.28;;;24.33;;
45206;SDS011;30950;53.086;21.576;2022-10-17T03:27:39;29.77;;;23.70;;
45206;SDS011;30950;53.086;21.576;2022-10-17T03:30:08;31.95;;;23.20;;
45206;SDS011;30950;53.086;21.576;2022-10-17T03:32:35;33.05;;;24.17;;
45206;SDS011;30950;53.086;21.576;2022-10-17T03:35:03;31.88;;;23.92;;
45206;SDS011;30950;53.086;21.576;2022-10-17T03:37:31;43.38;;;28.35;;
45206;SDS011;30950;53.086;21.576;2022-10-17T03:39:58;68.15;;;28.10;;
45206;SDS011;30950;53.086;21.576;2022-10-17T03:42:26;38.58;;;26.42;;
45206;SDS011;30950;53.086;21.576;2022-10-17T03:44:53;43.88;;;26.02;;
45206;SDS011;30950;53.086;21.576;2022-10-17T03:47:21;112.20;;;25.80;;
45206;SDS011;30950;53.086;21.576;2022-10-17T03:49:49;45.42;;;23.67;;
45206;SDS011;30950;53.086;21.576;2022-10-17T03:52:20;67.85;;;25.38;;
45206;SDS011;30950;53.086;21.576;2022-10-17T03:54:49;108.05;;;26.00;;
45206;SDS011;30950;53.086;21.576;2022-10-17T03:57:17;93.70;;;29.60;;
45206;SDS011;30950;53.086;21.576;2022-10-17T03:59:45;61.95;;;28.85;;
45206;SDS011;30950;53.086;21.576;2022-10-17T04:02:16;129.52;;;27.52;;
45206;SDS011;30950;53.086;21.576;2022-10-17T04:04:44;80.05;;;27.15;;
45206;SDS011;30950;53.086;21.576;2022-10-17T04:07:12;40.58;;;24.70;;
45206;SDS011;30950;53.086;21.576;2022-10-17T04:09:42;136.32;;;30.60;;
45206;SDS011;30950;53.086;21.576;2022-10-17T04:12:14;68.40;;;26.05;;
45206;SDS011;30950;53.086;21.576;2022-10-17T04:14:42;43.92;;;24.30;;
45206;SDS011;30950;53.086;21.576;2022-10-17T04:17:10;90.25;;;29.75;;
45206;SDS011;30950;53.086;21.576;2022-10-17T04:19:38;139.18;;;30.60;;
45206;SDS011;30950;53.086;21.576;2022-10-17T04:22:06;63.40;;;26.15;;
45206;SDS011;30950;53.086;21.576;2022-10-17T04:24:36;31.67;;;22.85;;
45206;SDS011;30950;53.086;21.576;2022-10-17T04:27:07;100.88;;;29.08;;
45206;SDS011;30950;53.086;21.576;2022-10-17T04:29:39;48.00;;;24.75;;
45206;SDS011;30950;53.086;21.576;2022-10-17T04:32:15;93.35;;;25.98;;
45206;SDS011;30950;53.086;21.576;2022-10-17T04:35:07;51.00;;;24.75;;
45206;SDS011;30950;53.086;21.576;2022-10-17T04:37:35;78.45;;;26.65;;
45206;SDS011;30950;53.086;21.576;2022-10-17T04:40:11;82.70;;;25.95;;
45206;SDS011;30950;53.086;21.576;2022-10-17T04:42:39;44.30;;;27.90;;
45206;SDS011;30950;53.086;21.576;2022-10-17T04:45:09;112.03;;;30.95;;
45206;SDS011;30950;53.086;21.576;2022-10-17T04:47:40;70.03;;;25.90;;
45206;SDS011;30950;53.086;21.576;2022-10-17T04:50:08;42.70;;;24.75;;
45206;SDS011;30950;53.086;21.576;2022-10-17T04:52:37;32.70;;;23.48;;
45206;SDS011;30950;53.086;21.576;2022-10-17T04:55:07;85.60;;;24.55;;
45206;SDS011;30950;53.086;21.576;2022-10-17T04:57:35;81.30;;;24.65;;
45206;SDS011;30950;53.086;21.576;2022-10-17T05:00:17;44.03;;;25.70;;
45206;SDS011;30950;53.086;21.576;2022-10-17T05:02:52;110.88;;;26.02;;
45206;SDS011;30950;53.086;21.576;2022-10-17T05:05:20;69.22;;;27.08;;
45206;SDS011;30950;53.086;21.576;2022-10-17T05:07:51;45.75;;;27.15;;
45206;SDS011;30950;53.086;21.576;2022-10-17T05:10:22;41.42;;;25.67;;
45206;SDS011;30950;53.086;21.576;2022-10-17T05:12:51;37.90;;;26.33;;
45206;SDS011;30950;53.086;21.576;2022-10-17T05:15:21;50.20;;;27.88;;
45206;SDS011;30950;53.086;21.576;2022-10-17T05:17:53;48.00;;;30.80;;
45206;SDS011;30950;53.086;21.576;2022-10-17T05:20:23;38.95;;;26.30;;
45206;SDS011;30950;53.086;21.576;2022-10-17T05:22:51;38.00;;;25.05;;
45206;SDS011;30950;53.086;21.576;2022-10-17T05:25:19;37.92;;;29.98;;
45206;SDS011;30950;53.086;21.576;2022-10-17T05:27:48;32.70;;;23.05;;
45206;SDS011;30950;53.086;21.576;2022-10-17T05:30:16;39.45;;;25.88;;
45206;SDS011;30950;53.086;21.576;2022-10-17T05:32:44;32.58;;;25.77;;
45206;SDS011;30950;53.086;21.576;2022-10-17T05:35:12;31.42;;;23.55;;
45206;SDS011;30950;53.086;21.576;2022-10-17T05:37:40;38.03;;;25.80;;
45206;SDS011;30950;53.086;21.576;2022-10-17T05:40:08;33.40;;;24.63;;
45206;SDS011;30950;53.086;21.576;2022-10-17T05:42:36;38.47;;;25.75;;
45206;SDS011;30950;53.086;21.576;2022-10-17T05:45:09;34.22;;;23.70;;
45206;SDS011;30950;53.086;21.576;2022-10-17T05:47:37;40.40;;;24.05;;
45206;SDS011;30950;53.086;21.576;2022-10-17T05:50:04;42.78;;;24.63;;
45206;SDS011;30950;53.086;21.576;2022-10-17T05:52:51;40.47;;;28.95;;
45206;SDS011;30950;53.086;21.576;2022-10-17T05:55:21;51.13;;;29.30;;
45206;SDS011;30950;53.086;21.576;2022-10-17T05:57:49;40.65;;;25.90;;
45206;SDS011;30950;53.086;21.576;2022-10-17T06:00:20;51.72;;;27.20;;
45206;SDS011;30950;53.086;21.576;2022-10-17T06:02:55;48.45;;;28.02;;
45206;SDS011;30950;53.086;21.576;2022-10-17T06:05:23;46.00;;;27.20;;
45206;SDS011;30950;53.086;21.576;2022-10-17T06:07:50;92.78;;;30.92;;
45206;SDS011;30950;53.086;21.576;2022-10-17T06:10:25;82.47;;;29.60;;
45206;SDS011;30950;53.086;21.576;2022-10-17T06:12:53;50.65;;;27.50;;
45206;SDS011;30950;53.086;21.576;2022-10-17T06:15:22;86.47;;;29.45;;
45206;SDS011;30950;53.086;21.576;2022-10-17T06:17:56;68.53;;;28.35;;
45206;SDS011;30950;53.086;21.576;2022-10-17T06:20:24;73.97;;;30.60;;
45206;SDS011;30950;53.086;21.576;2022-10-17T06:22:51;51.28;;;29.40;;
45206;SDS011;30950;53.086;21.576;2022-10-17T06:25:32;50.28;;;27.13;;
45206;SDS011;30950;53.086;21.576;2022-10-17T06:28:00;56.67;;;30.77;;
45206;SDS011;30950;53.086;21.576;2022-10-17T06:30:28;56.75;;;29.23;;
45206;SDS011;30950;53.086;21.576;2022-10-17T06:32:55;46.17;;;31.63;;
45206;SDS011;30950;53.086;21.576;2022-10-17T06:35:23;39.05;;;27.80;;
45206;SDS011;30950;53.086;21.576;2022-10-17T06:37:51;51.10;;;30.55;;
45206;SDS011;30950;53.086;21.576;2022-10-17T06:40:19;42.58;;;28.27;;
45206;SDS011;30950;53.086;21.576;2022-10-17T06:42:47;42.97;;;30.05;;
45206;SDS011;30950;53.086;21.576;2022-10-17T06:45:33;45.28;;;31.63;;
45206;SDS011;30950;53.086;21.576;2022-10-17T06:48:19;39.17;;;28.13;;
45206;SDS011;30950;53.086;21.576;2022-10-17T06:51:09;39.92;;;25.73;;
45206;SDS011;30950;53.086;21.576;2022-10-17T06:53:46;39.88;;;27.80;;
45206;SDS011;30950;53.086;21.576;2022-10-17T06:56:45;46.42;;;31.65;;
45206;SDS011;30950;53.086;21.576;2022-10-17T06:59:28;49.95;;;32.45;;
45206;SDS011;30950;53.086;21.576;2022-10-17T07:02:01;44.15;;;31.63;;
45206;SDS011;30950;53.086;21.576;2022-10-17T07:04:29;50.03;;;36.47;;
45206;SDS011;30950;53.086;21.576;2022-10-17T07:06:57;45.20;;;31.95;;
45206;SDS011;30950;53.086;21.576;2022-10-17T07:09:26;44.80;;;31.85;;
45206;SDS011;30950;53.086;21.576;2022-10-17T07:11:56;44.13;;;28.33;;
45206;SDS011;30950;53.086;21.576;2022-10-17T07:14:24;42.58;;;29.30;;
45206;SDS011;30950;53.086;21.576;2022-10-17T07:16:58;43.78;;;31.92;;
45206;SDS011;30950;53.086;21.576;2022-10-17T07:19:27;46.00;;;28.73;;
45206;SDS011;30950;53.086;21.576;2022-10-17T07:21:55;40.50;;;30.70;;
45206;SDS011;30950;53.086;21.576;2022-10-17T07:24:23;43.45;;;31.25;;
45206;SDS011;30950;53.086;21.576;2022-10-17T07:26:56;35.97;;;29.40;;
45206;SDS011;30950;53.086;21.576;2022-10-17T07:29:24;35.53;;;26.55;;
45206;SDS011;30950;53.086;21.576;2022-10-17T07:32:12;38.78;;;28.23;;
45206;SDS011;30950;53.086;21.576;2022-10-17T07:34:39;38.75;;;29.20;;
45206;SDS011;30950;53.086;21.576;2022-10-17T07:37:08;37.47;;;26.88;;
45206;SDS011;30950;53.086;21.576;2022-10-17T07:39:39;40.75;;;32.15;;
45206;SDS011;30950;53.086;21.576;2022-10-17T07:42:06;39.00;;;30.88;;
45206;SDS011;30950;53.086;21.576;2022-10-17T07:44:34;43.30;;;30.27;;
45206;SDS011;30950;53.086;21.576;2022-10-17T07:47:02;44.78;;;31.52;;
45206;SDS011;30950;53.086;21.576;2022-10-17T07:49:30;54.45;;;38.90;;
45206;SDS011;30950;53.086;21.576;2022-10-17T07:51:57;51.22;;;36.22;;
45206;SDS011;30950;53.086;21.576;2022-10-17T07:54:25;39.78;;;28.55;;
45206;SDS011;30950;53.086;21.576;2022-10-17T07:56:52;48.95;;;36.67;;
45206;SDS011;30950;53.086;21.576;2022-10-17T07:59:20;35.00;;;27.42;;
45206;SDS011;30950;53.086;21.576;2022-10-17T08:01:47;37.67;;;31.98;;
45206;SDS011;30950;53.086;21.576;2022-10-17T08:04:15;37.88;;;31.10;;
45206;SDS011;30950;53.086;21.576;2022-10-17T08:06:43;40.33;;;33.50;;
45206;SDS011;30950;53.086;21.576;2022-10-17T08:09:10;38.42;;;32.72;;
45206;SDS011;30950;53.086;21.576;2022-10-17T08:11:38;34.78;;;29.00;;
45206;SDS011;30950;53.086;21.576;2022-10-17T08:14:05;29.08;;;25.45;;
45206;SDS011;30950;53.086;21.576;2022-10-17T08:16:33;32.00;;;28.52;;
45206;SDS011;30950;53.086;21.576;2022-10-17T08:19:00;33.92;;;29.05;;
45206;SDS011;30950;53.086;21.576;2022-10-17T08:21:28;34.03;;;28.95;;
45206;SDS011;30950;53.086;21.576;2022-10-17T08:23:56;36.97;;;31.83;;
45206;SDS011;30950;53.086;21.576;2022-10-17T08:26:24;30.98;;;25.83;;
45206;SDS011;30950;53.086;21.576;2022-10-17T08:28:52;37.67;;;31.15;;
45206;SDS011;30950;53.086;21.576;2022-10-17T08:31:20;40.47;;;29.45;;
45206;SDS011;30950;53.086;21.576;2022-10-17T08:33:48;38.75;;;31.23;;
45206;SDS011;30950;53.086;21.576;2022-10-17T08:36:17;36.45;;;30.48;;
45206;SDS011;30950;53.086;21.576;2022-10-17T08:38:46;37.70;;;32.17;;
45206;SDS011;30950;53.086;21.576;2022-10-17T08:41:24;41.45;;;34.22;;
45206;SDS011;30950;53.086;21.576;2022-10-17T08:44:50;33.08;;;26.00;;
45206;SDS011;30950;53.086;21.576;2022-10-17T08:47:09;40.15;;;29.58;;
45206;SDS011;30950;53.086;21.576;2022-10-17T08:50:10;46.70;;;35.92;;
45206;SDS011;30950;53.086;21.576;2022-10-17T08:53:04;40.58;;;32.45;;
45206;SDS011;30950;53.086;21.576;2022-10-17T08:55:50;36.00;;;32.05;;
45206;SDS011;30950;53.086;21.576;2022-10-17T08:58:20;42.88;;;34.08;;
45206;SDS011;30950;53.086;21.576;2022-10-17T09:03:50;47.22;;;39.92;;
45206;SDS011;30950;53.086;21.576;2022-10-17T09:23:01;40.17;;;31.52;;
45206;SDS011;30950;53.086;21.576;2022-10-17T09:25:34;40.75;;;28.17;;
45206;SDS011;30950;53.086;21.576;2022-10-17T09:36:26;39.15;;;31.25;;
45206;SDS011;30950;53.086;21.576;2022-10-17T09:39:00;38.50;;;32.97;;
45206;SDS011;30950;53.086;21.576;2022-10-17T09:41:33;40.33;;;34.42;;
45206;SDS011;30950;53.086;21.576;2022-10-17T09:44:14;35.85;;;31.98;;
45206;SDS011;30950;53.086;21.576;2022-10-17T09:49:53;38.67;;;32.97;;
45206;SDS011;30950;53.086;21.576;2022-10-17T09:52:21;36.00;;;29.85;;
45206;SDS011;30950;53.086;21.576;2022-10-17T09:54:51;36.65;;;32.67;;
45206;SDS011;30950;53.086;21.576;2022-10-17T09:57:25;35.22;;;30.08;;
45206;SDS011;30950;53.086;21.576;2022-10-17T10:02:24;30.52;;;24.48;;
45206;SDS011;30950;53.086;21.576;2022-10-17T10:04:55;37.08;;;31.58;;
45206;SDS011;30950;53.086;21.576;2022-10-17T10:07:37;32.17;;;25.95;;
45206;SDS011;30950;53.086;21.576;2022-10-17T10:10:07;25.58;;;20.77;;
45206;SDS011;30950;53.086;21.576;2022-10-17T10:13:03;27.42;;;22.30;;
45206;SDS011;30950;53.086;21.576;2022-10-17T10:15:42;28.92;;;23.65;;
45206;SDS011;30950;53.086;21.576;2022-10-17T10:21:14;26.10;;;19.42;;
45206;SDS011;30950;53.086;21.576;2022-10-17T10:24:31;19.02;;;17.02;;
45206;SDS011;30950;53.086;21.576;2022-10-17T10:26:40;24.30;;;21.50;;
45206;SDS011;30950;53.086;21.576;2022-10-17T10:34:56;23.52;;;18.65;;
45206;SDS011;30950;53.086;21.576;2022-10-17T10:37:40;21.55;;;19.00;;
45206;SDS011;30950;53.086;21.576;2022-10-17T10:40:16;18.63;;;14.63;;
45206;SDS011;30950;53.086;21.576;2022-10-17T10:42:50;20.50;;;18.30;;
45206;SDS011;30950;53.086;21.576;2022-10-17T10:48:48;22.67;;;17.58;;
45206;SDS011;30950;53.086;21.576;2022-10-17T10:51:18;24.30;;;18.00;;
45206;SDS011;30950;53.086;21.576;2022-10-17T10:56:36;17.95;;;16.05;;
45206;SDS011;30950;53.086;21.576;2022-10-17T10:59:19;17.73;;;15.80;;
45206;SDS011;30950;53.086;21.576;2022-10-17T11:04:55;14.77;;;13.02;;
45206;SDS011;30950;53.086;21.576;2022-10-17T11:10:22;17.58;;;14.70;;
45206;SDS011;30950;53.086;21.576;2022-10-17T11:12:59;14.52;;;12.93;;
45206;SDS011;30950;53.086;21.576;2022-10-17T11:15:48;14.73;;;12.95;;
45206;SDS011;30950;53.086;21.576;2022-10-17T11:18:49;15.02;;;12.82;;
45206;SDS011;30950;53.086;21.576;2022-10-17T11:21:37;13.40;;;11.98;;
45206;SDS011;30950;53.086;21.576;2022-10-17T11:24:22;13.35;;;11.38;;
45206;SDS011;30950;53.086;21.576;2022-10-17T11:27:03;15.10;;;12.50;;
45206;SDS011;30950;53.086;21.576;2022-10-17T11:29:36;16.30;;;13.98;;
45206;SDS011;30950;53.086;21.576;2022-10-17T11:32:14;16.00;;;12.10;;
45206;SDS011;30950;53.086;21.576;2022-10-17T11:35:06;11.15;;;9.65;;
45206;SDS011;30950;53.086;21.576;2022-10-17T11:37:56;14.00;;;12.60;;
45206;SDS011;30950;53.086;21.576;2022-10-17T11:40:29;13.90;;;12.48;;
45206;SDS011;30950;53.086;21.576;2022-10-17T11:43:04;17.88;;;14.60;;
45206;SDS011;30950;53.086;21.576;2022-10-17T11:45:40;16.85;;;14.40;;
45206;SDS011;30950;53.086;21.576;2022-10-17T11:48:18;14.60;;;12.98;;
45206;SDS011;30950;53.086;21.576;2022-10-17T11:50:48;16.83;;;14.20;;
45206;SDS011;30950;53.086;21.576;2022-10-17T11:53:45;15.82;;;14.13;;
45206;SDS011;30950;53.086;21.576;2022-10-17T11:56:24;17.77;;;15.60;;
45206;SDS011;30950;53.086;21.576;2022-10-17T12:02:10;18.10;;;16.20;;
45206;SDS011;30950;53.086;21.576;2022-10-17T12:04:55;18.65;;;16.15;;
45206;SDS011;30950;53.086;21.576;2022-10-17T12:07:43;18.52;;;16.17;;
45206;SDS011;30950;53.086;21.576;2022-10-17T12:11:14;21.48;;;16.20;;
45206;SDS011;30950;53.086;21.576;2022-10-17T12:19:17;23.02;;;18.80;;
45206;SDS011;30950;53.086;21.576;2022-10-17T12:24:55;20.15;;;18.15;;
45206;SDS011;30950;53.086;21.576;2022-10-17T12:27:37;19.10;;;15.80;;
45206;SDS011;30950;53.086;21.576;2022-10-17T12:30:25;25.98;;;18.20;;
45206;SDS011;30950;53.086;21.576;2022-10-17T12:35:38;23.02;;;18.83;;
45206;SDS011;30950;53.086;21.576;2022-10-17T12:45:54;25.55;;;21.77;;
45206;SDS011;30950;53.086;21.576;2022-10-17T12:51:03;24.27;;;20.63;;
45206;SDS011;30950;53.086;21.576;2022-10-17T12:54:01;25.92;;;21.55;;
45206;SDS011;30950;53.086;21.576;2022-10-17T12:59:15;22.17;;;19.50;;
45206;SDS011;30950;53.086;21.576;2022-10-17T13:01:48;22.67;;;19.98;;
45206;SDS011;30950;53.086;21.576;2022-10-17T13:04:21;23.05;;;19.25;;
45206;SDS011;30950;53.086;21.576;2022-10-17T13:06:52;21.70;;;19.33;;
45206;SDS011;30950;53.086;21.576;2022-10-17T13:09:29;23.50;;;19.08;;
45206;SDS011;30950;53.086;21.576;2022-10-17T13:12:02;22.98;;;20.40;;
45206;SDS011;30950;53.086;21.576;2022-10-17T13:14:31;21.65;;;17.70;;
45206;SDS011;30950;53.086;21.576;2022-10-17T13:17:01;22.33;;;17.70;;
45206;SDS011;30950;53.086;21.576;2022-10-17T13:19:38;20.27;;;17.25;;
45206;SDS011;30950;53.086;21.576;2022-10-17T13:22:21;20.95;;;18.90;;
45206;SDS011;30950;53.086;21.576;2022-10-17T13:24:51;21.85;;;17.73;;
45206;SDS011;30950;53.086;21.576;2022-10-17T13:27:32;21.08;;;17.48;;
45206;SDS011;30950;53.086;21.576;2022-10-17T13:30:23;19.15;;;17.15;;
45206;SDS011;30950;53.086;21.576;2022-10-17T13:32:56;20.65;;;15.73;;
45206;SDS011;30950;53.086;21.576;2022-10-17T13:35:32;18.17;;;15.63;;
45206;SDS011;30950;53.086;21.576;2022-10-17T13:38:23;16.67;;;15.07;;
45206;SDS011;30950;53.086;21.576;2022-10-17T13:40:59;19.63;;;16.73;;
45206;SDS011;30950;53.086;21.576;2022-10-17T13:43:48;20.55;;;18.40;;
45206;SDS011;30950;53.086;21.576;2022-10-17T13:46:28;17.42;;;15.32;;
45206;SDS011;30950;53.086;21.576;2022-10-17T13:49:48;19.23;;;16.45;;
45206;SDS011;30950;53.086;21.576;2022-10-17T13:52:00;18.13;;;15.75;;
45206;SDS011;30950;53.086;21.576;2022-10-17T13:57:02;18.77;;;15.88;;
45206;SDS011;30950;53.086;21.576;2022-10-17T13:59:37;17.65;;;15.82;;
45206;SDS011;30950;53.086;21.576;2022-10-17T14:04:40;19.35;;;15.82;;
45206;SDS011;30950;53.086;21.576;2022-10-17T14:07:31;20.33;;;16.00;;
45206;SDS011;30950;53.086;21.576;2022-10-17T14:10:39;17.42;;;15.45;;
45206;SDS011;30950;53.086;21.576;2022-10-17T14:13:21;18.20;;;14.05;;
45206;SDS011;30950;53.086;21.576;2022-10-17T14:15:51;20.92;;;16.45;;
45206;SDS011;30950;53.086;21.576;2022-10-17T14:18:22;20.98;;;17.45;;
45206;SDS011;30950;53.086;21.576;2022-10-17T14:21:00;20.38;;;16.50;;
45206;SDS011;30950;53.086;21.576;2022-10-17T14:23:49;22.90;;;19.88;;
45206;SDS011;30950;53.086;21.576;2022-10-17T14:26:18;24.05;;;17.17;;
45206;SDS011;30950;53.086;21.576;2022-10-17T14:28:49;20.05;;;17.95;;
45206;SDS011;30950;53.086;21.576;2022-10-17T14:31:29;21.58;;;17.85;;
45206;SDS011;30950;53.086;21.576;2022-10-17T14:34:00;20.02;;;17.23;;
45206;SDS011;30950;53.086;21.576;2022-10-17T14:36:37;19.65;;;17.45;;
45206;SDS011;30950;53.086;21.576;2022-10-17T14:39:07;25.77;;;18.90;;
45206;SDS011;30950;53.086;21.576;2022-10-17T14:41:45;22.38;;;19.20;;
45206;SDS011;30950;53.086;21.576;2022-10-17T14:44:26;22.23;;;18.05;;
45206;SDS011;30950;53.086;21.576;2022-10-17T14:47:00;29.13;;;21.38;;
45206;SDS011;30950;53.086;21.576;2022-10-17T14:49:50;26.20;;;20.08;;
45206;SDS011;30950;53.086;21.576;2022-10-17T14:52:29;23.45;;;19.63;;
45206;SDS011;30950;53.086;21.576;2022-10-17T14:54:59;24.58;;;19.17;;
45206;SDS011;30950;53.086;21.576;2022-10-17T14:57:44;23.67;;;21.15;;
45206;SDS011;30950;53.086;21.576;2022-10-17T15:00:15;29.40;;;22.52;;
45206;SDS011;30950;53.086;21.576;2022-10-17T15:02:44;25.60;;;22.98;;
45206;SDS011;30950;53.086;21.576;2022-10-17T15:05:13;26.42;;;22.80;;
45206;SDS011;30950;53.086;21.576;2022-10-17T15:07:41;27.80;;;22.13;;
45206;SDS011;30950;53.086;21.576;2022-10-17T15:10:31;23.42;;;20.98;;
45206;SDS011;30950;53.086;21.576;2022-10-17T15:13:01;26.42;;;21.27;;
45206;SDS011;30950;53.086;21.576;2022-10-17T15:15:49;27.17;;;23.17;;
45206;SDS011;30950;53.086;21.576;2022-10-17T15:18:18;25.08;;;19.40;;
45206;SDS011;30950;53.086;21.576;2022-10-17T15:20:45;28.20;;;23.42;;
45206;SDS011;30950;53.086;21.576;2022-10-17T15:23:21;30.50;;;25.30;;
45206;SDS011;30950;53.086;21.576;2022-10-17T15:25:49;24.27;;;19.98;;
45206;SDS011;30950;53.086;21.576;2022-10-17T15:28:16;25.95;;;19.48;;
45206;SDS011;30950;53.086;21.576;2022-10-17T15:30:44;31.25;;;25.80;;
45206;SDS011;30950;53.086;21.576;2022-10-17T15:33:11;30.88;;;25.00;;
45206;SDS011;30950;53.086;21.576;2022-10-17T15:35:39;32.47;;;26.17;;
45206;SDS011;30950;53.086;21.576;2022-10-17T15:38:10;29.27;;;21.48;;
45206;SDS011;30950;53.086;21.576;2022-10-17T15:40:43;34.65;;;26.52;;
45206;SDS011;30950;53.086;21.576;2022-10-17T15:43:14;32.80;;;27.35;;
45206;SDS011;30950;53.086;21.576;2022-10-17T15:45:46;34.42;;;27.23;;
45206;SDS011;30950;53.086;21.576;2022-10-17T15:48:22;30.48;;;26.58;;
45206;SDS011;30950;53.086;21.576;2022-10-17T15:50:56;31.38;;;26.42;;
45206;SDS011;30950;53.086;21.576;2022-10-17T15:53:23;38.25;;;28.38;;
45206;SDS011;30950;53.086;21.576;2022-10-17T15:55:51;30.00;;;26.30;;
45206;SDS011;30950;53.086;21.576;2022-10-17T15:58:18;31.35;;;27.35;;
45206;SDS011;30950;53.086;21.576;2022-10-17T16:00:46;33.28;;;27.27;;
45206;SDS011;30950;53.086;21.576;2022-10-17T16:03:14;40.97;;;27.35;;
45206;SDS011;30950;53.086;21.576;2022-10-17T16:05:42;31.77;;;27.05;;
45206;SDS011;30950;53.086;21.576;2022-10-17T16:08:09;34.90;;;27.27;;
45206;SDS011;30950;53.086;21.576;2022-10-17T16:10:37;36.28;;;28.17;;
45206;SDS011;30950;53.086;21.576;2022-10-17T16:13:08;34.28;;;27.15;;
45206;SDS011;30950;53.086;21.576;2022-10-17T16:15:48;34.63;;;26.65;;
45206;SDS011;30950;53.086;21.576;2022-10-17T16:18:18;32.63;;;28.58;;
45206;SDS011;30950;53.086;21.576;2022-10-17T16:20:47;33.50;;;26.63;;
45206;SDS011;30950;53.086;21.576;2022-10-17T16:23:14;36.50;;;28.70;;
45206;SDS011;30950;53.086;21.576;2022-10-17T16:25:42;36.60;;;29.52;;
45206;SDS011;30950;53.086;21.576;2022-10-17T16:28:09;34.67;;;27.42;;
45206;SDS011;30950;53.086;21.576;2022-10-17T16:30:39;34.53;;;27.88;;
45206;SDS011;30950;53.086;21.576;2022-10-17T16:33:08;36.22;;;29.08;;
45206;SDS011;30950;53.086;21.576;2022-10-17T16:35:36;32.08;;;25.92;;
45206;SDS011;30950;53.086;21.576;2022-10-17T16:38:05;33.90;;;28.75;;
45206;SDS011;30950;53.086;21.576;2022-10-17T16:40:33;35.28;;;30.00;;
45206;SDS011;30950;53.086;21.576;2022-10-17T16:43:03;38.28;;;30.08;;
45206;SDS011;30950;53.086;21.576;2022-10-17T16:45:31;32.08;;;25.65;;
45206;SDS011;30950;53.086;21.576;2022-10-17T16:47:58;39.25;;;27.92;;